sensor_id;sensor_type;location;lat;lon;timestamp;pressure;altitude;pressure_sealevel;temperature;humidity
11987;BME280;6053;51.382;6.768;2023-03-01T00:01:51;102669.94;;;4.54;76.71
11987;BME280;6053;51.382;6.768;2023-03-01T00:04:20;102669.22;;;4.61;77.44
11987;BME280;6053;51.382;6.768;2023-03-01T00:06:48;102673.66;;;4.62;77.74
11987;BME280;6053;51.382;6.768;2023-03-01T00:09:17;102680.00;;;4.63;77.22
11987;BME280;6053;51.382;6.768;2023-03-01T00:11:46;102685.75;;;4.60;77.78
11987;BME280;6053;51.382;6.768;2023-03-01T00:14:16;102688.34;;;4.52;77.35
11987;BME280;6053;51.382;6.768;2023-03-01T00:16:47;102678.84;;;4.46;77.16
11987;BME280;6053;51.382;6.768;2023-03-01T00:19:17;102687.78;;;4.58;77.67
11987;BME280;6053;51.382;6.768;2023-03-01T00:21:46;102669.50;;;4.58;76.61
11987;BME280;6053;51.382;6.768;2023-03-01T00:24:16;102678.72;;;4.57;77.57
11987;BME280;6053;51.382;6.768;2023-03-01T00:26:44;102672.69;;;4.54;77.97
11987;BME280;6053;51.382;6.768;2023-03-01T00:29:15;102669.50;;;4.48;77.71
11987;BME280;6053;51.382;6.768;2023-03-01T00:31:43;102675.13;;;4.57;74.05
11987;BME280;6053;51.382;6.768;2023-03-01T00:34:12;102667.22;;;4.15;76.91
11987;BME280;6053;51.382;6.768;2023-03-01T00:36:41;102667.06;;;4.36;77.33
11987;BME280;6053;51.382;6.768;2023-03-01T00:39:12;102653.38;;;4.45;78.14
11987;BME280;6053;51.382;6.768;2023-03-01T00:41:41;102654.97;;;4.58;77.48
11987;BME280;6053;51.382;6.768;2023-03-01T00:44:10;102648.47;;;4.59;77.51
11987;BME280;6053;51.382;6.768;2023-03-01T00:46:40;102656.97;;;4.46;76.90
11987;BME280;6053;51.382;6.768;2023-03-01T00:49:09;102650.25;;;4.50;77.43
11987;BME280;6053;51.382;6.768;2023-03-01T00:51:37;102650.66;;;4.45;76.90
11987;BME280;6053;51.382;6.768;2023-03-01T00:54:09;102644.91;;;4.39;76.89
11987;BME280;6053;51.382;6.768;2023-03-01T00:56:37;102655.84;;;4.48;77.38
11987;BME280;6053;51.382;6.768;2023-03-01T00:59:06;102646.06;;;4.46;77.64
11987;BME280;6053;51.382;6.768;2023-03-01T01:01:35;102644.63;;;4.52;77.07
11987;BME280;6053;51.382;6.768;2023-03-01T01:04:07;102641.75;;;4.43;77.21
11987;BME280;6053;51.382;6.768;2023-03-01T01:06:38;102644.63;;;4.32;77.63
11987;BME280;6053;51.382;6.768;2023-03-01T01:09:11;102637.91;;;4.27;76.88
11987;BME280;6053;51.382;6.768;2023-03-01T01:11:45;102633.00;;;4.30;75.91
11987;BME280;6053;51.382;6.768;2023-03-01T01:14:14;102629.09;;;4.42;77.68
11987;BME280;6053;51.382;6.768;2023-03-01T01:16:43;102627.81;;;4.37;77.93
11987;BME280;6053;51.382;6.768;2023-03-01T01:19:14;102620.59;;;4.36;77.68
11987;BME280;6053;51.382;6.768;2023-03-01T01:21:43;102617.28;;;4.42;77.68
11987;BME280;6053;51.382;6.768;2023-03-01T01:24:12;102611.72;;;4.43;76.91
11987;BME280;6053;51.382;6.768;2023-03-01T01:26:41;102611.13;;;4.49;76.63
11987;BME280;6053;51.382;6.768;2023-03-01T01:29:10;102608.97;;;4.43;77.04
11987;BME280;6053;51.382;6.768;2023-03-01T01:31:41;102597.31;;;4.32;76.30
11987;BME280;6053;51.382;6.768;2023-03-01T01:34:15;102600.78;;;4.24;76.15
11987;BME280;6053;51.382;6.768;2023-03-01T01:36:47;102599.38;;;4.20;78.39
11987;BME280;6053;51.382;6.768;2023-03-01T01:39:16;102598.19;;;4.32;77.51
11987;BME280;6053;51.382;6.768;2023-03-01T01:41:45;102603.06;;;4.29;78.43
11987;BME280;6053;51.382;6.768;2023-03-01T01:44:17;102590.16;;;4.21;78.20
11987;BME280;6053;51.382;6.768;2023-03-01T01:46:49;102587.13;;;4.24;78.30
11987;BME280;6053;51.382;6.768;2023-03-01T01:49:24;102580.66;;;4.25;77.98
11987;BME280;6053;51.382;6.768;2023-03-01T01:52:03;102580.22;;;4.30;77.92
11987;BME280;6053;51.382;6.768;2023-03-01T01:54:39;102572.75;;;4.22;78.50
11987;BME280;6053;51.382;6.768;2023-03-01T01:57:13;102572.19;;;4.18;78.38
11987;BME280;6053;51.382;6.768;2023-03-01T01:59:47;102570.75;;;4.05;76.86
11987;BME280;6053;51.382;6.768;2023-03-01T02:02:17;102573.91;;;3.61;72.82
11987;BME280;6053;51.382;6.768;2023-03-01T02:04:50;102581.56;;;3.96;78.98
11987;BME280;6053;51.382;6.768;2023-03-01T02:07:22;102579.09;;;3.93;77.50
11987;BME280;6053;51.382;6.768;2023-03-01T02:09:53;102575.53;;;4.03;79.01
11987;BME280;6053;51.382;6.768;2023-03-01T02:12:23;102581.69;;;4.05;77.49
11987;BME280;6053;51.382;6.768;2023-03-01T02:14:53;102591.47;;;4.07;76.38
11987;BME280;6053;51.382;6.768;2023-03-01T02:17:22;102588.00;;;4.15;77.34
11987;BME280;6053;51.382;6.768;2023-03-01T02:20:04;102585.44;;;3.94;77.72
11987;BME280;6053;51.382;6.768;2023-03-01T02:22:37;102579.09;;;3.74;78.51
11987;BME280;6053;51.382;6.768;2023-03-01T02:25:12;102577.53;;;3.91;78.83
11987;BME280;6053;51.382;6.768;2023-03-01T02:27:52;102570.47;;;3.98;79.37
11987;BME280;6053;51.382;6.768;2023-03-01T02:30:25;102576.94;;;3.97;78.98
11987;BME280;6053;51.382;6.768;2023-03-01T02:32:56;102566.72;;;3.99;78.64
11987;BME280;6053;51.382;6.768;2023-03-01T02:35:31;102556.53;;;4.01;78.98
11987;BME280;6053;51.382;6.768;2023-03-01T02:38:02;102565.47;;;4.03;79.12
11987;BME280;6053;51.382;6.768;2023-03-01T02:40:34;102565.19;;;3.96;78.85
11987;BME280;6053;51.382;6.768;2023-03-01T02:43:05;102570.19;;;4.01;78.94
11987;BME280;6053;51.382;6.768;2023-03-01T02:45:37;102568.31;;;3.92;78.46
11987;BME280;6053;51.382;6.768;2023-03-01T02:48:11;102561.44;;;3.97;78.71
11987;BME280;6053;51.382;6.768;2023-03-01T02:50:52;102557.38;;;4.11;78.34
11987;BME280;6053;51.382;6.768;2023-03-01T02:53:30;102566.16;;;3.95;78.35
11987;BME280;6053;51.382;6.768;2023-03-01T02:56:01;102564.88;;;3.90;77.13
11987;BME280;6053;51.382;6.768;2023-03-01T02:58:30;102569.03;;;3.94;77.66
11987;BME280;6053;51.382;6.768;2023-03-01T03:01:00;102571.34;;;3.79;74.79
11987;BME280;6053;51.382;6.768;2023-03-01T03:07:17;102573.78;;;3.63;77.67
11987;BME280;6053;51.382;6.768;2023-03-01T03:09:45;102568.06;;;3.06;76.01
11987;BME280;6053;51.382;6.768;2023-03-01T03:12:14;102567.56;;;3.41;78.33
11987;BME280;6053;51.382;6.768;2023-03-01T03:14:43;102569.75;;;3.57;79.50
11987;BME280;6053;51.382;6.768;2023-03-01T03:17:13;102568.47;;;3.71;79.02
11987;BME280;6053;51.382;6.768;2023-03-01T03:19:42;102562.72;;;3.64;77.14
11987;BME280;6053;51.382;6.768;2023-03-01T03:22:12;102561.88;;;3.73;79.09
11987;BME280;6053;51.382;6.768;2023-03-01T03:24:41;102556.97;;;3.77;77.59
11987;BME280;6053;51.382;6.768;2023-03-01T03:27:10;102555.81;;;3.70;78.28
11987;BME280;6053;51.382;6.768;2023-03-01T03:29:38;102557.41;;;3.63;76.37
11987;BME280;6053;51.382;6.768;2023-03-01T03:32:07;102559.69;;;3.58;78.78
11987;BME280;6053;51.382;6.768;2023-03-01T03:34:37;102550.34;;;3.50;74.93
11987;BME280;6053;51.382;6.768;2023-03-01T03:37:06;102549.22;;;3.53;80.15
11987;BME280;6053;51.382;6.768;2023-03-01T03:39:55;102540.56;;;3.48;79.95
11987;BME280;6053;51.382;6.768;2023-03-01T03:42:23;102554.38;;;3.56;79.91
11987;BME280;6053;51.382;6.768;2023-03-01T03:44:52;102537.28;;;3.64;76.69
11987;BME280;6053;51.382;6.768;2023-03-01T03:47:21;102538.16;;;3.64;79.17
11987;BME280;6053;51.382;6.768;2023-03-01T03:49:51;102539.44;;;3.50;75.86
11987;BME280;6053;51.382;6.768;2023-03-01T03:52:20;102534.81;;;3.31;78.95
11987;BME280;6053;51.382;6.768;2023-03-01T03:54:49;102535.13;;;3.48;76.24
11987;BME280;6053;51.382;6.768;2023-03-01T03:57:17;102528.22;;;3.44;77.14
11987;BME280;6053;51.382;6.768;2023-03-01T03:59:46;102539.44;;;3.50;79.17
11987;BME280;6053;51.382;6.768;2023-03-01T04:02:14;102533.03;;;3.11;77.67
11987;BME280;6053;51.382;6.768;2023-03-01T04:04:51;102526.81;;;2.90;80.15
11987;BME280;6053;51.382;6.768;2023-03-01T04:07:19;102511.53;;;3.18;80.33
11987;BME280;6053;51.382;6.768;2023-03-01T04:09:48;102510.41;;;3.30;77.08
11987;BME280;6053;51.382;6.768;2023-03-01T04:12:16;102515.81;;;3.11;77.80
11987;BME280;6053;51.382;6.768;2023-03-01T04:14:50;102511.25;;;3.21;78.19
11987;BME280;6053;51.382;6.768;2023-03-01T04:17:18;102506.81;;;3.29;80.38
11987;BME280;6053;51.382;6.768;2023-03-01T04:19:47;102506.53;;;3.33;78.91
11987;BME280;6053;51.382;6.768;2023-03-01T04:22:18;102505.72;;;2.92;77.70
11987;BME280;6053;51.382;6.768;2023-03-01T04:24:46;102495.31;;;3.16;79.85
11987;BME280;6053;51.382;6.768;2023-03-01T04:27:16;102507.22;;;3.15;80.25
11987;BME280;6053;51.382;6.768;2023-03-01T04:29:44;102500.34;;;3.30;79.66
11987;BME280;6053;51.382;6.768;2023-03-01T04:32:13;102497.34;;;3.43;77.27
11987;BME280;6053;51.382;6.768;2023-03-01T04:34:43;102504.81;;;3.41;78.99
11987;BME280;6053;51.382;6.768;2023-03-01T04:37:12;102507.84;;;3.48;79.36
11987;BME280;6053;51.382;6.768;2023-03-01T04:39:44;102504.69;;;3.52;76.67
11987;BME280;6053;51.382;6.768;2023-03-01T04:42:14;102511.00;;;3.53;76.64
11987;BME280;6053;51.382;6.768;2023-03-01T04:44:44;102508.00;;;3.66;77.82
11987;BME280;6053;51.382;6.768;2023-03-01T04:47:12;102509.41;;;3.41;76.17
11987;BME280;6053;51.382;6.768;2023-03-01T04:49:41;102504.63;;;3.14;77.22
11987;BME280;6053;51.382;6.768;2023-03-01T04:52:09;102509.00;;;3.36;78.77
11987;BME280;6053;51.382;6.768;2023-03-01T04:54:38;102509.38;;;3.02;75.18
11987;BME280;6053;51.382;6.768;2023-03-01T04:57:08;102506.66;;;2.71;80.61
11987;BME280;6053;51.382;6.768;2023-03-01T04:59:37;102500.78;;;2.66;82.40
11987;BME280;6053;51.382;6.768;2023-03-01T05:02:05;102495.59;;;3.13;79.92
11987;BME280;6053;51.382;6.768;2023-03-01T05:04:34;102496.13;;;2.57;75.83
11987;BME280;6053;51.382;6.768;2023-03-01T05:07:03;102499.03;;;2.34;78.69
11987;BME280;6053;51.382;6.768;2023-03-01T05:09:31;102501.44;;;2.49;76.92
11987;BME280;6053;51.382;6.768;2023-03-01T05:12:00;102500.84;;;2.86;82.15
11987;BME280;6053;51.382;6.768;2023-03-01T05:14:30;102499.41;;;2.91;74.25
11987;BME280;6053;51.382;6.768;2023-03-01T05:16:58;102495.16;;;3.08;75.61
11987;BME280;6053;51.382;6.768;2023-03-01T05:19:31;102497.56;;;3.01;79.95
11987;BME280;6053;51.382;6.768;2023-03-01T05:22:00;102496.38;;;2.84;77.85
11987;BME280;6053;51.382;6.768;2023-03-01T05:24:33;102492.09;;;2.92;79.49
11987;BME280;6053;51.382;6.768;2023-03-01T05:27:03;102482.59;;;2.76;77.81
11987;BME280;6053;51.382;6.768;2023-03-01T05:29:33;102478.03;;;2.87;81.19
11987;BME280;6053;51.382;6.768;2023-03-01T05:32:03;102478.66;;;3.10;79.66
11987;BME280;6053;51.382;6.768;2023-03-01T05:34:34;102477.56;;;2.72;74.92
11987;BME280;6053;51.382;6.768;2023-03-01T05:37:03;102474.78;;;3.02;81.03
11987;BME280;6053;51.382;6.768;2023-03-01T05:39:32;102470.34;;;3.30;79.95
11987;BME280;6053;51.382;6.768;2023-03-01T05:42:01;102474.47;;;3.15;77.65
11987;BME280;6053;51.382;6.768;2023-03-01T05:44:31;102463.56;;;3.15;76.79
11987;BME280;6053;51.382;6.768;2023-03-01T05:47:00;102474.78;;;3.12;78.39
11987;BME280;6053;51.382;6.768;2023-03-01T05:49:28;102477.09;;;3.17;73.52
11987;BME280;6053;51.382;6.768;2023-03-01T05:51:57;102472.97;;;2.72;79.14
11987;BME280;6053;51.382;6.768;2023-03-01T05:54:26;102481.88;;;2.44;79.80
11987;BME280;6053;51.382;6.768;2023-03-01T05:56:55;102481.50;;;2.58;80.54
11987;BME280;6053;51.382;6.768;2023-03-01T05:59:24;102475.41;;;2.66;78.99
11987;BME280;6053;51.382;6.768;2023-03-01T06:01:54;102486.44;;;2.74;78.31
11987;BME280;6053;51.382;6.768;2023-03-01T06:04:23;102480.06;;;2.54;79.67
11987;BME280;6053;51.382;6.768;2023-03-01T06:06:51;102485.47;;;2.13;78.30
11987;BME280;6053;51.382;6.768;2023-03-01T06:09:20;102480.03;;;1.72;77.30
11987;BME280;6053;51.382;6.768;2023-03-01T06:11:48;102471.22;;;1.79;85.33
11987;BME280;6053;51.382;6.768;2023-03-01T06:14:17;102485.28;;;2.05;83.62
11987;BME280;6053;51.382;6.768;2023-03-01T06:16:46;102477.38;;;2.64;81.79
11987;BME280;6053;51.382;6.768;2023-03-01T06:19:16;102472.72;;;2.95;80.92
11987;BME280;6053;51.382;6.768;2023-03-01T06:21:45;102473.63;;;2.95;79.54
11987;BME280;6053;51.382;6.768;2023-03-01T06:24:13;102472.78;;;2.64;74.06
11987;BME280;6053;51.382;6.768;2023-03-01T06:26:42;102473.00;;;2.42;78.78
11987;BME280;6053;51.382;6.768;2023-03-01T06:29:10;102466.75;;;2.60;80.89
11987;BME280;6053;51.382;6.768;2023-03-01T06:31:39;102467.50;;;2.63;76.52
11987;BME280;6053;51.382;6.768;2023-03-01T06:34:08;102468.16;;;2.95;80.30
11987;BME280;6053;51.382;6.768;2023-03-01T06:36:41;102466.69;;;2.91;78.89
11987;BME280;6053;51.382;6.768;2023-03-01T06:39:09;102463.53;;;2.86;78.64
11987;BME280;6053;51.382;6.768;2023-03-01T06:41:38;102467.19;;;3.16;77.23
11987;BME280;6053;51.382;6.768;2023-03-01T06:44:07;102468.41;;;2.42;77.16
11987;BME280;6053;51.382;6.768;2023-03-01T06:46:35;102468.50;;;2.31;80.52
11987;BME280;6053;51.382;6.768;2023-03-01T06:49:04;102466.88;;;2.49;79.18
11987;BME280;6053;51.382;6.768;2023-03-01T06:51:36;102470.53;;;2.69;80.32
11987;BME280;6053;51.382;6.768;2023-03-01T06:54:06;102470.13;;;2.43;80.35
11987;BME280;6053;51.382;6.768;2023-03-01T06:56:35;102469.94;;;2.66;79.50
11987;BME280;6053;51.382;6.768;2023-03-01T06:59:04;102466.94;;;2.28;77.78
11987;BME280;6053;51.382;6.768;2023-03-01T07:01:32;102466.66;;;2.31;74.49
11987;BME280;6053;51.382;6.768;2023-03-01T07:04:01;102477.81;;;2.59;80.13
11987;BME280;6053;51.382;6.768;2023-03-01T07:06:30;102476.31;;;1.94;80.21
11987;BME280;6053;51.382;6.768;2023-03-01T07:08:59;102473.06;;;2.00;80.76
11987;BME280;6053;51.382;6.768;2023-03-01T07:11:29;102473.69;;;1.50;82.77
11987;BME280;6053;51.382;6.768;2023-03-01T07:13:57;102475.94;;;2.29;82.55
11987;BME280;6053;51.382;6.768;2023-03-01T07:16:27;102467.28;;;1.51;82.96
11987;BME280;6053;51.382;6.768;2023-03-01T07:18:56;102467.53;;;2.11;80.27
11987;BME280;6053;51.382;6.768;2023-03-01T07:21:26;102464.22;;;2.38;80.68
11987;BME280;6053;51.382;6.768;2023-03-01T07:23:54;102461.31;;;1.99;74.95
11987;BME280;6053;51.382;6.768;2023-03-01T07:26:23;102464.91;;;2.30;78.18
11987;BME280;6053;51.382;6.768;2023-03-01T07:28:53;102470.84;;;1.31;79.99
11987;BME280;6053;51.382;6.768;2023-03-01T07:31:22;102465.06;;;1.24;82.13
11987;BME280;6053;51.382;6.768;2023-03-01T07:33:51;102468.88;;;1.54;82.89
11987;BME280;6053;51.382;6.768;2023-03-01T07:36:19;102460.31;;;2.31;81.84
11987;BME280;6053;51.382;6.768;2023-03-01T07:38:48;102460.03;;;2.55;78.47
11987;BME280;6053;51.382;6.768;2023-03-01T07:41:17;102455.16;;;2.68;77.34
11987;BME280;6053;51.382;6.768;2023-03-01T07:43:45;102448.84;;;2.68;77.74
11987;BME280;6053;51.382;6.768;2023-03-01T07:46:15;102453.41;;;2.57;78.13
11987;BME280;6053;51.382;6.768;2023-03-01T07:48:45;102450.91;;;2.75;76.81
11987;BME280;6053;51.382;6.768;2023-03-01T07:51:14;102460.59;;;2.68;74.84
11987;BME280;6053;51.382;6.768;2023-03-01T07:53:45;102457.94;;;1.12;75.86
11987;BME280;6053;51.382;6.768;2023-03-01T07:56:15;102460.28;;;1.05;79.62
11987;BME280;6053;51.382;6.768;2023-03-01T07:58:45;102459.59;;;1.56;82.42
11987;BME280;6053;51.382;6.768;2023-03-01T08:01:20;102460.84;;;1.73;82.65
11987;BME280;6053;51.382;6.768;2023-03-01T08:03:49;102459.38;;;1.48;75.96
11987;BME280;6053;51.382;6.768;2023-03-01T08:06:18;102466.28;;;1.20;79.22
11987;BME280;6053;51.382;6.768;2023-03-01T08:08:47;102462.59;;;0.55;82.72
11987;BME280;6053;51.382;6.768;2023-03-01T08:11:16;102465.69;;;0.62;81.26
11987;BME280;6053;51.382;6.768;2023-03-01T08:13:46;102466.75;;;0.93;78.80
11987;BME280;6053;51.382;6.768;2023-03-01T08:16:20;102468.03;;;1.21;79.30
11987;BME280;6053;51.382;6.768;2023-03-01T08:18:49;102464.56;;;1.51;78.32
11987;BME280;6053;51.382;6.768;2023-03-01T08:21:18;102470.78;;;1.10;77.82
11987;BME280;6053;51.382;6.768;2023-03-01T08:23:47;102464.16;;;0.91;77.58
11987;BME280;6053;51.382;6.768;2023-03-01T08:26:17;102462.16;;;0.93;76.20
11987;BME280;6053;51.382;6.768;2023-03-01T08:28:48;102460.84;;;1.20;79.17
11987;BME280;6053;51.382;6.768;2023-03-01T08:31:21;102459.69;;;0.90;77.73
11987;BME280;6053;51.382;6.768;2023-03-01T08:33:52;102454.19;;;0.81;77.25
11987;BME280;6053;51.382;6.768;2023-03-01T08:36:24;102462.69;;;1.31;77.18
11987;BME280;6053;51.382;6.768;2023-03-01T08:38:53;102461.41;;;1.88;79.26
11987;BME280;6053;51.382;6.768;2023-03-01T08:41:22;102452.75;;;1.83;74.98
11987;BME280;6053;51.382;6.768;2023-03-01T08:43:51;102454.41;;;1.53;73.50
11987;BME280;6053;51.382;6.768;2023-03-01T08:46:21;102447.91;;;1.86;75.66
11987;BME280;6053;51.382;6.768;2023-03-01T08:48:49;102452.94;;;1.70;76.91
11987;BME280;6053;51.382;6.768;2023-03-01T08:51:20;102448.94;;;1.64;76.89
11987;BME280;6053;51.382;6.768;2023-03-01T08:53:49;102453.31;;;2.07;74.17
11987;BME280;6053;51.382;6.768;2023-03-01T08:56:18;102452.16;;;1.79;73.79
11987;BME280;6053;51.382;6.768;2023-03-01T08:58:48;102440.47;;;1.47;75.02
11987;BME280;6053;51.382;6.768;2023-03-01T09:01:19;102441.06;;;1.50;76.83
11987;BME280;6053;51.382;6.768;2023-03-01T09:03:48;102445.38;;;1.74;76.60
11987;BME280;6053;51.382;6.768;2023-03-01T09:06:17;102434.91;;;2.21;76.54
11987;BME280;6053;51.382;6.768;2023-03-01T09:08:47;102442.13;;;2.62;72.50
11987;BME280;6053;51.382;6.768;2023-03-01T09:11:18;102439.47;;;1.89;70.89
11987;BME280;6053;51.382;6.768;2023-03-01T09:13:48;102437.56;;;2.32;72.67
11987;BME280;6053;51.382;6.768;2023-03-01T09:16:20;102439.81;;;2.27;74.68
11987;BME280;6053;51.382;6.768;2023-03-01T09:18:50;102442.09;;;2.22;71.47
11987;BME280;6053;51.382;6.768;2023-03-01T09:21:21;102439.41;;;2.72;75.20
11987;BME280;6053;51.382;6.768;2023-03-01T09:24:06;102441.84;;;2.65;69.42
11987;BME280;6053;51.382;6.768;2023-03-01T09:26:35;102435.72;;;2.92;72.02
11987;BME280;6053;51.382;6.768;2023-03-01T09:29:04;102439.34;;;2.52;69.58
11987;BME280;6053;51.382;6.768;2023-03-01T09:31:34;102431.25;;;2.31;69.82
11987;BME280;6053;51.382;6.768;2023-03-01T09:34:02;102427.56;;;2.42;71.66
11987;BME280;6053;51.382;6.768;2023-03-01T09:36:31;102421.59;;;2.68;70.11
11987;BME280;6053;51.382;6.768;2023-03-01T09:39:01;102422.38;;;2.39;67.84
11987;BME280;6053;51.382;6.768;2023-03-01T09:41:43;102434.16;;;2.40;69.41
11987;BME280;6053;51.382;6.768;2023-03-01T09:47:05;102413.41;;;2.48;70.13
11987;BME280;6053;51.382;6.768;2023-03-01T09:49:35;102413.50;;;2.97;70.28
11987;BME280;6053;51.382;6.768;2023-03-01T09:52:17;102410.63;;;3.66;66.10
11987;BME280;6053;51.382;6.768;2023-03-01T09:54:51;102419.47;;;4.25;63.81
11987;BME280;6053;51.382;6.768;2023-03-01T09:57:33;102422.53;;;4.12;62.19
11987;BME280;6053;51.382;6.768;2023-03-01T10:00:26;102418.19;;;4.57;60.35
11987;BME280;6053;51.382;6.768;2023-03-01T10:03:08;102415.03;;;4.52;60.43
11987;BME280;6053;51.382;6.768;2023-03-01T10:05:53;102405.28;;;4.94;59.61
11987;BME280;6053;51.382;6.768;2023-03-01T10:08:34;102401.41;;;5.15;57.94
11987;BME280;6053;51.382;6.768;2023-03-01T10:11:16;102407.56;;;4.54;58.60
11987;BME280;6053;51.382;6.768;2023-03-01T10:13:54;102397.97;;;4.49;59.53
11987;BME280;6053;51.382;6.768;2023-03-01T10:16:28;102392.66;;;4.66;59.57
11987;BME280;6053;51.382;6.768;2023-03-01T10:19:04;102387.47;;;5.26;60.24
11987;BME280;6053;51.382;6.768;2023-03-01T10:21:39;102385.69;;;5.17;56.54
11987;BME280;6053;51.382;6.768;2023-03-01T10:24:12;102385.22;;;5.04;59.12
11987;BME280;6053;51.382;6.768;2023-03-01T10:26:48;102381.47;;;4.87;56.40
11987;BME280;6053;51.382;6.768;2023-03-01T10:29:22;102365.09;;;5.49;56.04
11987;BME280;6053;51.382;6.768;2023-03-01T10:31:53;102364.28;;;4.94;56.19
11987;BME280;6053;51.382;6.768;2023-03-01T10:34:29;102360.38;;;5.59;56.29
11987;BME280;6053;51.382;6.768;2023-03-01T10:37:09;102352.66;;;5.80;56.24
11987;BME280;6053;51.382;6.768;2023-03-01T10:39:55;102350.81;;;5.19;56.12
11987;BME280;6053;51.382;6.768;2023-03-01T10:42:28;102365.34;;;5.37;55.77
11987;BME280;6053;51.382;6.768;2023-03-01T10:44:58;102352.38;;;5.65;56.95
11987;BME280;6053;51.382;6.768;2023-03-01T10:47:42;102348.03;;;6.07;54.23
11987;BME280;6053;51.382;6.768;2023-03-01T10:50:20;102356.06;;;5.56;53.44
11987;BME280;6053;51.382;6.768;2023-03-01T10:53:00;102349.91;;;6.06;56.36
11987;BME280;6053;51.382;6.768;2023-03-01T10:55:33;102338.47;;;6.11;55.01
11987;BME280;6053;51.382;6.768;2023-03-01T10:58:17;102336.00;;;5.48;54.94
11987;BME280;6053;51.382;6.768;2023-03-01T11:00:49;102333.22;;;5.91;59.65
11987;BME280;6053;51.382;6.768;2023-03-01T11:03:21;102335.50;;;5.70;54.21
11987;BME280;6053;51.382;6.768;2023-03-01T11:05:55;102331.38;;;5.48;55.26
11987;BME280;6053;51.382;6.768;2023-03-01T11:08:35;102332.59;;;5.28;55.71
11987;BME280;6053;51.382;6.768;2023-03-01T11:11:17;102328.78;;;5.64;56.88
11987;BME280;6053;51.382;6.768;2023-03-01T11:13:55;102316.03;;;5.55;54.58
11987;BME280;6053;51.382;6.768;2023-03-01T11:16:27;102313.19;;;5.65;54.70
11987;BME280;6053;51.382;6.768;2023-03-01T11:19:19;102311.47;;;5.38;54.50
11987;BME280;6053;51.382;6.768;2023-03-01T11:21:56;102312.22;;;5.04;55.24
11987;BME280;6053;51.382;6.768;2023-03-01T11:24:31;102306.91;;;5.03;53.87
11987;BME280;6053;51.382;6.768;2023-03-01T11:27:14;102303.97;;;5.40;56.99
11987;BME280;6053;51.382;6.768;2023-03-01T11:29:46;102296.66;;;5.49;56.36
11987;BME280;6053;51.382;6.768;2023-03-01T11:32:19;102289.94;;;5.43;54.80
11987;BME280;6053;51.382;6.768;2023-03-01T11:34:53;102294.06;;;5.21;56.13
11987;BME280;6053;51.382;6.768;2023-03-01T11:37:32;102283.00;;;5.05;55.89
11987;BME280;6053;51.382;6.768;2023-03-01T11:40:21;102284.72;;;5.06;55.44
11987;BME280;6053;51.382;6.768;2023-03-01T11:42:59;102288.28;;;5.24;53.66
11987;BME280;6053;51.382;6.768;2023-03-01T11:45:36;102295.47;;;5.25;55.00
11987;BME280;6053;51.382;6.768;2023-03-01T11:48:19;102290.72;;;5.27;54.30
11987;BME280;6053;51.382;6.768;2023-03-01T11:51:04;102294.72;;;5.15;53.96
11987;BME280;6053;51.382;6.768;2023-03-01T11:53:50;102287.38;;;4.97;54.68
11987;BME280;6053;51.382;6.768;2023-03-01T11:56:27;102287.53;;;4.96;56.07
11987;BME280;6053;51.382;6.768;2023-03-01T12:02:13;102285.56;;;5.24;53.92
11987;BME280;6053;51.382;6.768;2023-03-01T12:05:29;102284.16;;;5.02;53.22
11987;BME280;6053;51.382;6.768;2023-03-01T12:08:09;102289.22;;;5.15;53.14
11987;BME280;6053;51.382;6.768;2023-03-01T12:10:48;102272.56;;;5.00;55.04
11987;BME280;6053;51.382;6.768;2023-03-01T12:13:36;102274.44;;;5.26;55.60
11987;BME280;6053;51.382;6.768;2023-03-01T12:16:30;102281.38;;;5.38;54.94
11987;BME280;6053;51.382;6.768;2023-03-01T12:19:25;102271.47;;;4.93;55.59
11987;BME280;6053;51.382;6.768;2023-03-01T12:22:14;102262.63;;;5.25;57.72
11987;BME280;6053;51.382;6.768;2023-03-01T12:25:16;102254.38;;;5.17;52.42
11987;BME280;6053;51.382;6.768;2023-03-01T12:28:04;102258.28;;;5.14;53.35
11987;BME280;6053;51.382;6.768;2023-03-01T12:30:46;102254.09;;;5.28;52.78
11987;BME280;6053;51.382;6.768;2023-03-01T12:33:29;102249.66;;;5.27;52.86
11987;BME280;6053;51.382;6.768;2023-03-01T12:36:26;102239.94;;;5.07;52.16
11987;BME280;6053;51.382;6.768;2023-03-01T12:39:12;102236.03;;;5.35;55.49
11987;BME280;6053;51.382;6.768;2023-03-01T12:41:57;102234.00;;;5.37;53.80
11987;BME280;6053;51.382;6.768;2023-03-01T12:44:47;102225.91;;;5.28;53.42
11987;BME280;6053;51.382;6.768;2023-03-01T12:47:31;102225.88;;;5.54;54.22
11987;BME280;6053;51.382;6.768;2023-03-01T12:50:11;102223.94;;;5.46;53.34
11987;BME280;6053;51.382;6.768;2023-03-01T12:52:46;102215.88;;;5.71;55.65
11987;BME280;6053;51.382;6.768;2023-03-01T12:55:25;102214.25;;;5.60;53.34
11987;BME280;6053;51.382;6.768;2023-03-01T12:58:00;102213.47;;;5.76;53.13
11987;BME280;6053;51.382;6.768;2023-03-01T13:00:38;102221.22;;;5.80;51.20
11987;BME280;6053;51.382;6.768;2023-03-01T13:03:17;102211.13;;;5.81;53.65
11987;BME280;6053;51.382;6.768;2023-03-01T13:06:00;102206.31;;;5.83;53.70
11987;BME280;6053;51.382;6.768;2023-03-01T13:08:38;102200.75;;;5.93;51.31
11987;BME280;6053;51.382;6.768;2023-03-01T13:11:16;102205.66;;;5.81;51.85
11987;BME280;6053;51.382;6.768;2023-03-01T13:13:46;102207.84;;;5.77;51.43
11987;BME280;6053;51.382;6.768;2023-03-01T13:19:07;102198.81;;;5.85;53.51
11987;BME280;6053;51.382;6.768;2023-03-01T13:21:38;102194.56;;;5.90;52.72
11987;BME280;6053;51.382;6.768;2023-03-01T13:24:25;102192.63;;;5.83;54.00
11987;BME280;6053;51.382;6.768;2023-03-01T13:27:11;102199.97;;;5.82;51.18
11987;BME280;6053;51.382;6.768;2023-03-01T13:29:52;102183.97;;;5.96;52.77
11987;BME280;6053;51.382;6.768;2023-03-01T13:32:23;102189.72;;;5.84;51.66
11987;BME280;6053;51.382;6.768;2023-03-01T13:35:44;102178.59;;;5.86;50.38
11987;BME280;6053;51.382;6.768;2023-03-01T13:38:39;102175.63;;;6.05;51.41
11987;BME280;6053;51.382;6.768;2023-03-01T13:41:13;102168.44;;;6.04;52.49
11987;BME280;6053;51.382;6.768;2023-03-01T13:43:43;102187.03;;;5.93;52.20
11987;BME280;6053;51.382;6.768;2023-03-01T13:46:17;102165.84;;;5.95;51.54
11987;BME280;6053;51.382;6.768;2023-03-01T13:48:51;102164.84;;;6.04;51.24
11987;BME280;6053;51.382;6.768;2023-03-01T13:51:25;102158.69;;;6.18;50.17
11987;BME280;6053;51.382;6.768;2023-03-01T13:53:56;102154.88;;;5.95;51.01